Time;durP1;ratioP1;P1;durP2;ratioP2;P2;SDS_P1;SDS_P2;PMS_P1;PMS_P2;Temp;Humidity;BMP_temperature;BMP_pressure;BME280_temperature;BME280_humidity;BME280_pressure;Samples;Min_cycle;Max_cycle;Signal;HPM_P1;HPM_P2
2021/08/12 00:00:58;;;;;;;6.90;4.63;;;;;;;;;;5020814;28;20018;-76
2021/08/12 00:03:24;;;;;;;9.73;5.10;;;;;;;;;;5012632;28;20037;-78
2021/08/12 00:05:50;;;;;;;7.22;4.72;;;;;;;;;;4998257;28;20045;-77
2021/08/12 00:08:16;;;;;;;6.38;4.75;;;;;;;;;;4997908;28;20026;-77
2021/08/12 00:10:42;;;;;;;6.07;4.55;;;;;;;;;;4996947;28;20022;-78
2021/08/12 00:13:08;;;;;;;7.55;5.03;;;;;;;;;;4997854;28;20309;-77
2021/08/12 00:15:34;;;;;;;6.68;5.00;;;;;;;;;;4980353;28;20125;-77
2021/08/12 00:18:00;;;;;;;8.63;4.90;;;;;;;;;;4997335;28;20073;-77
2021/08/12 00:20:26;;;;;;;8.38;4.93;;;;;;;;;;4996827;28;20432;-78
2021/08/12 00:22:52;;;;;;;8.25;4.63;;;;;;;;;;4997348;28;20026;-77
2021/08/12 00:25:18;;;;;;;8.45;4.75;;;;;;;;;;4997510;28;20077;-78
2021/08/12 00:27:45;;;;;;;11.85;5.35;;;;;;;;;;4980219;28;20042;-78
2021/08/12 00:30:11;;;;;;;8.60;4.53;;;;;;;;;;4996144;28;20364;-77
2021/08/12 00:32:37;;;;;;;11.15;5.72;;;;;;;;;;4979039;28;20085;-77
2021/08/12 00:35:03;;;;;;;6.70;4.82;;;;;;;;;;5014839;28;20026;-77
2021/08/12 00:37:29;;;;;;;5.95;4.53;;;;;;;;;;5014854;28;20030;-77
2021/08/12 00:39:55;;;;;;;7.20;5.10;;;;;;;;;;5014113;28;20106;-77
2021/08/12 00:42:22;;;;;;;7.75;5.07;;;;;;;;;;5014639;28;20034;-77
2021/08/12 00:44:48;;;;;;;8.80;4.82;;;;;;;;;;5014720;28;20018;-76
2021/08/12 00:47:14;;;;;;;8.48;5.38;;;;;;;;;;5014653;28;20026;-76
2021/08/12 00:49:40;;;;;;;8.40;4.97;;;;;;;;;;5013727;28;20554;-77
2021/08/12 00:52:06;;;;;;;6.25;5.07;;;;;;;;;;5014529;28;20042;-77
2021/08/12 00:54:35;;;;;;;7.82;5.18;;;;;;;;;;5013870;28;20084;-76
2021/08/12 00:57:02;;;;;;;8.30;4.82;;;;;;;;;;5014413;28;20036;-77
2021/08/12 00:59:31;;;;;;;6.40;4.47;;;;;;;;;;5013773;28;20026;-77
2021/08/12 01:01:58;;;;;;;8.88;4.53;;;;;;;;;;4996863;28;20030;-77
2021/08/12 01:04:24;;;;;;;8.05;4.60;;;;;;;;;;5014202;28;20053;-77
2021/08/12 01:06:57;;;;;;;6.95;4.53;;;;;;;;;;5014319;28;20029;-77
2021/08/12 01:09:35;;;;;;;6.72;4.68;;;;;;;;;;5013586;28;20029;-77
2021/08/12 01:12:06;;;;;;;5.45;4.13;;;;;;;;;;5014247;28;20535;-77
2021/08/12 01:14:46;;;;;;;7.07;4.85;;;;;;;;;;5014187;28;20447;-77
2021/08/12 01:17:15;;;;;;;6.28;4.28;;;;;;;;;;5014191;28;20029;-77
2021/08/12 01:20:00;;;;;;;6.85;4.97;;;;;;;;;;5013003;28;20033;-77
2021/08/12 01:22:26;;;;;;;8.40;5.00;;;;;;;;;;5013991;28;20483;-77
2021/08/12 01:24:54;;;;;;;6.57;4.60;;;;;;;;;;4996383;28;20034;-77
2021/08/12 01:27:22;;;;;;;7.25;4.97;;;;;;;;;;5013868;28;20021;-77
2021/08/12 01:29:52;;;;;;;5.90;4.80;;;;;;;;;;5013297;28;20054;-77
2021/08/12 01:32:19;;;;;;;8.32;5.38;;;;;;;;;;5013690;28;20030;-76
2021/08/12 01:34:50;;;;;;;8.52;4.78;;;;;;;;;;5013490;28;20050;-77
2021/08/12 01:37:16;;;;;;;11.30;5.40;;;;;;;;;;5013866;28;20486;-77
2021/08/12 01:39:42;;;;;;;10.38;5.53;;;;;;;;;;5013061;28;20057;-77
2021/08/12 01:42:11;;;;;;;8.68;5.43;;;;;;;;;;4995981;28;20458;-77
2021/08/12 01:44:38;;;;;;;8.88;4.90;;;;;;;;;;5013928;28;20026;-77
2021/08/12 01:47:05;;;;;;;9.00;5.25;;;;;;;;;;5013590;28;20030;-76
2021/08/12 01:49:31;;;;;;;11.15;5.47;;;;;;;;;;5012912;28;20509;-77
2021/08/12 01:51:57;;;;;;;7.88;5.28;;;;;;;;;;5013451;28;20406;-77
2021/08/12 01:54:24;;;;;;;10.63;5.07;;;;;;;;;;5013572;28;20030;-77
2021/08/12 01:56:50;;;;;;;6.55;5.30;;;;;;;;;;5013468;28;20030;-77
2021/08/12 01:59:17;;;;;;;7.88;5.15;;;;;;;;;;5012692;28;20030;-76
2021/08/12 02:01:47;;;;;;;8.57;5.60;;;;;;;;;;5013300;28;20497;-77
2021/08/12 02:04:13;;;;;;;9.15;5.47;;;;;;;;;;4995367;28;20026;-77
2021/08/12 02:06:40;;;;;;;12.07;5.28;;;;;;;;;;5013177;28;20494;-77
2021/08/12 02:09:06;;;;;;;7.30;5.25;;;;;;;;;;5012526;28;20197;-77
2021/08/12 02:11:35;;;;;;;8.75;5.07;;;;;;;;;;5013045;28;20550;-76
2021/08/12 02:14:01;;;;;;;8.43;4.72;;;;;;;;;;5013012;28;20573;-76
2021/08/12 02:16:27;;;;;;;7.60;4.90;;;;;;;;;;5012900;28;20113;-76
2021/08/12 02:18:54;;;;;;;7.65;4.75;;;;;;;;;;5012288;28;20025;-76
2021/08/12 02:21:25;;;;;;;10.45;5.22;;;;;;;;;;5012968;28;20562;-77
2021/08/12 02:23:59;;;;;;;8.43;5.27;;;;;;;;;;5012810;28;20037;-77
2021/08/12 02:26:28;;;;;;;10.27;5.13;;;;;;;;;;5012858;28;20249;-76
2021/08/12 02:28:54;;;;;;;8.13;5.32;;;;;;;;;;5012248;28;20028;-75
2021/08/12 02:31:20;;;;;;;8.40;5.30;;;;;;;;;;5012745;28;20056;-76
2021/08/12 02:33:49;;;;;;;9.48;4.93;;;;;;;;;;5012210;28;20080;-76
2021/08/12 02:36:16;;;;;;;8.82;4.95;;;;;;;;;;4995631;28;20120;-76
2021/08/12 02:38:43;;;;;;;10.90;5.22;;;;;;;;;;5012389;28;20033;-76
2021/08/12 02:41:11;;;;;;;7.75;4.68;;;;;;;;;;5012159;28;20026;-75
2021/08/12 02:43:39;;;;;;;7.68;4.97;;;;;;;;;;5012491;28;20068;-76
2021/08/12 02:46:05;;;;;;;12.27;5.40;;;;;;;;;;5012531;28;20125;-76
2021/08/12 02:48:31;;;;;;;9.57;5.15;;;;;;;;;;5012371;28;20025;-76
2021/08/12 02:50:59;;;;;;;8.38;5.38;;;;;;;;;;5012426;28;20049;-75
2021/08/12 02:53:25;;;;;;;7.85;4.97;;;;;;;;;;4994772;28;20385;-76
2021/08/12 02:55:52;;;;;;;7.80;4.43;;;;;;;;;;4994727;28;20037;-75
2021/08/12 02:58:19;;;;;;;8.80;4.90;;;;;;;;;;5012180;28;20475;-76
2021/08/12 03:00:45;;;;;;;8.85;5.75;;;;;;;;;;5011642;28;20026;-75
2021/08/12 03:03:12;;;;;;;9.73;5.13;;;;;;;;;;5011838;28;20021;-75
2021/08/12 03:05:38;;;;;;;6.22;4.78;;;;;;;;;;4994501;28;20045;-76
2021/08/12 03:08:07;;;;;;;10.50;5.35;;;;;;;;;;5012186;28;20022;-76
2021/08/12 03:10:33;;;;;;;7.50;5.25;;;;;;;;;;5011511;28;20022;-76
2021/08/12 03:12:59;;;;;;;8.13;5.28;;;;;;;;;;5011923;28;20207;-76
2021/08/12 03:15:26;;;;;;;8.57;5.40;;;;;;;;;;5012044;28;20501;-75
2021/08/12 03:17:53;;;;;;;7.13;5.32;;;;;;;;;;5011332;28;20038;-75
2021/08/12 03:20:19;;;;;;;8.77;5.13;;;;;;;;;;5011316;28;20025;-76
2021/08/12 03:22:48;;;;;;;7.35;5.10;;;;;;;;;;4994434;28;20041;-76
2021/08/12 03:25:14;;;;;;;10.60;5.30;;;;;;;;;;5012035;28;20018;-75
2021/08/12 03:27:40;;;;;;;9.93;5.65;;;;;;;;;;5012085;28;20109;-75
2021/08/12 03:30:06;;;;;;;10.90;5.65;;;;;;;;;;5011627;28;20065;-76
2021/08/12 03:32:32;;;;;;;10.35;5.78;;;;;;;;;;5011990;28;20026;-75
2021/08/12 03:34:58;;;;;;;7.90;5.22;;;;;;;;;;5011615;28;20030;-76
2021/08/12 03:37:24;;;;;;;9.80;5.50;;;;;;;;;;5011860;28;20402;-75
2021/08/12 03:39:50;;;;;;;8.40;5.68;;;;;;;;;;5011194;28;20058;-75
2021/08/12 03:42:16;;;;;;;9.73;5.35;;;;;;;;;;5022687;22;20505;-77
2021/08/12 03:44:42;;;;;;;8.13;5.05;;;;;;;;;;4994198;28;20030;-77
2021/08/12 03:47:08;;;;;;;7.40;5.65;;;;;;;;;;5011987;28;20030;-77
2021/08/12 03:49:34;;;;;;;9.52;5.90;;;;;;;;;;5010990;28;20109;-77
2021/08/12 03:52:01;;;;;;;8.05;5.50;;;;;;;;;;5011498;28;20046;-78
2021/08/12 03:54:27;;;;;;;11.25;6.10;;;;;;;;;;5012006;28;20054;-77
2021/08/12 03:56:53;;;;;;;8.43;5.95;;;;;;;;;;5011946;28;20104;-77
2021/08/12 03:59:21;;;;;;;8.82;5.47;;;;;;;;;;5011254;28;20025;-77
2021/08/12 04:01:47;;;;;;;6.93;5.80;;;;;;;;;;5011979;28;20109;-77
2021/08/12 04:04:13;;;;;;;11.25;5.85;;;;;;;;;;5011321;28;20026;-77
2021/08/12 04:06:39;;;;;;;8.93;6.25;;;;;;;;;;4994240;28;20033;-77
2021/08/12 04:09:05;;;;;;;8.43;5.68;;;;;;;;;;4993717;28;20029;-77
2021/08/12 04:11:31;;;;;;;7.13;5.70;;;;;;;;;;5011859;28;20025;-77
2021/08/12 04:13:57;;;;;;;9.45;6.22;;;;;;;;;;5011622;28;20030;-77
2021/08/12 04:16:23;;;;;;;8.43;5.57;;;;;;;;;;5011121;28;20026;-77
2021/08/12 04:18:49;;;;;;;11.27;6.30;;;;;;;;;;5013599;28;20042;-78
2021/08/12 04:21:15;;;;;;;10.57;6.20;;;;;;;;;;5026925;28;20034;-77
2021/08/12 04:23:41;;;;;;;6.53;5.35;;;;;;;;;;5022515;28;20030;-77
2021/08/12 04:26:07;;;;;;;6.03;5.07;;;;;;;;;;5017976;28;20482;-76
2021/08/12 04:28:33;;;;;;;10.48;6.10;;;;;;;;;;4995235;28;20030;-77
2021/08/12 04:30:59;;;;;;;6.72;5.18;;;;;;;;;;5013428;28;20034;-77
2021/08/12 04:33:25;;;;;;;7.50;5.10;;;;;;;;;;5014864;28;20029;-77
2021/08/12 04:35:51;;;;;;;10.30;6.05;;;;;;;;;;4997878;28;20034;-77
2021/08/12 04:38:17;;;;;;;8.70;5.68;;;;;;;;;;5015578;28;20106;-76
2021/08/12 04:40:43;;;;;;;7.80;5.60;;;;;;;;;;5014633;28;20486;-76
2021/08/12 04:43:09;;;;;;;7.80;5.57;;;;;;;;;;5014997;28;20029;-77
2021/08/12 04:45:35;;;;;;;9.45;5.80;;;;;;;;;;5015126;28;20025;-76
2021/08/12 04:48:02;;;;;;;7.95;5.20;;;;;;;;;;5015129;28;20026;-77
2021/08/12 04:50:28;;;;;;;8.60;5.25;;;;;;;;;;5014364;28;20398;-77
2021/08/12 04:52:54;;;;;;;8.75;5.60;;;;;;;;;;5014970;28;20467;-77
2021/08/12 04:55:21;;;;;;;7.45;5.18;;;;;;;;;;4997261;28;20034;-77
2021/08/12 04:57:47;;;;;;;9.77;5.13;;;;;;;;;;5014733;28;20093;-77
2021/08/12 05:00:13;;;;;;;6.47;4.93;;;;;;;;;;5014218;28;20482;-76
2021/08/12 05:02:39;;;;;;;6.15;4.95;;;;;;;;;;5015068;28;20026;-77
2021/08/12 05:05:05;;;;;;;8.65;5.10;;;;;;;;;;5014534;28;20022;-77
2021/08/12 05:07:31;;;;;;;7.05;4.72;;;;;;;;;;4997098;28;20057;-77
2021/08/12 05:09:58;;;;;;;8.60;5.10;;;;;;;;;;5014179;28;20057;-77
2021/08/12 05:12:24;;;;;;;7.28;5.43;;;;;;;;;;4997212;28;20041;-77
2021/08/12 05:14:51;;;;;;;8.23;4.95;;;;;;;;;;5014746;28;20045;-77
2021/08/12 05:17:17;;;;;;;8.13;5.05;;;;;;;;;;5014641;28;20030;-77
2021/08/12 05:19:43;;;;;;;9.30;5.25;;;;;;;;;;5013574;28;20033;-77
2021/08/12 05:22:10;;;;;;;7.28;5.20;;;;;;;;;;5014550;28;20474;-77
2021/08/12 05:24:36;;;;;;;8.95;5.82;;;;;;;;;;5014808;28;20041;-77
2021/08/12 05:27:02;;;;;;;8.63;5.13;;;;;;;;;;5014376;28;20026;-77
2021/08/12 05:29:28;;;;;;;12.40;6.32;;;;;;;;;;4996500;28;20033;-77
2021/08/12 05:31:54;;;;;;;8.13;5.30;;;;;;;;;;5014033;28;20458;-77
2021/08/12 05:34:20;;;;;;;9.35;5.20;;;;;;;;;;5013994;28;20022;-77
2021/08/12 05:36:46;;;;;;;7.82;5.22;;;;;;;;;;5014216;28;20033;-77
2021/08/12 05:39:12;;;;;;;7.50;5.43;;;;;;;;;;5013561;28;20055;-77
2021/08/12 05:41:38;;;;;;;7.97;5.72;;;;;;;;;;5015337;28;20132;-77
2021/08/12 05:44:04;;;;;;;8.70;5.57;;;;;;;;;;4997770;28;20045;-77
2021/08/12 05:46:30;;;;;;;7.10;5.07;;;;;;;;;;5013927;28;20528;-77
2021/08/12 05:48:56;;;;;;;6.35;4.68;;;;;;;;;;5013066;28;20022;-77
2021/08/12 05:51:22;;;;;;;9.38;5.25;;;;;;;;;;5013840;28;20058;-77
2021/08/12 05:53:48;;;;;;;10.80;5.50;;;;;;;;;;5013820;28;20030;-77
2021/08/12 05:56:14;;;;;;;7.95;5.15;;;;;;;;;;5013715;28;20088;-77
2021/08/12 05:58:40;;;;;;;6.20;4.43;;;;;;;;;;5013282;28;20025;-78
2021/08/12 06:01:09;;;;;;;8.48;5.20;;;;;;;;;;5013023;28;20021;-77
2021/08/12 06:03:36;;;;;;;11.00;5.53;;;;;;;;;;5012931;28;20049;-77
2021/08/12 06:06:02;;;;;;;7.10;4.93;;;;;;;;;;5013496;28;20422;-77
2021/08/12 06:08:28;;;;;;;9.20;4.78;;;;;;;;;;5013557;28;20446;-75
2021/08/12 06:10:54;;;;;;;7.88;4.78;;;;;;;;;;5013141;28;20030;-74
2021/08/12 06:13:20;;;;;;;11.95;5.38;;;;;;;;;;5013312;28;20092;-75
2021/08/12 06:15:46;;;;;;;13.55;4.72;;;;;;;;;;5013464;28;20038;-75
2021/08/12 06:18:13;;;;;;;5.78;4.20;;;;;;;;;;5009929;28;20026;-75
2021/08/12 06:20:40;;;;;;;6.93;4.38;;;;;;;;;;5012012;28;20030;-74
2021/08/12 06:23:06;;;;;;;6.85;4.60;;;;;;;;;;5013097;28;20030;-74
2021/08/12 06:25:33;;;;;;;8.00;4.80;;;;;;;;;;4973407;28;20564;-74
2021/08/12 06:27:59;;;;;;;12.88;4.97;;;;;;;;;;5008720;28;20398;-74
2021/08/12 06:30:25;;;;;;;8.57;5.00;;;;;;;;;;4990573;28;20030;-75
2021/08/12 06:32:51;;;;;;;7.95;4.88;;;;;;;;;;5024289;28;20030;-75
2021/08/12 06:35:19;;;;;;;8.50;4.30;;;;;;;;;;5008253;28;20021;-74
2021/08/12 06:37:46;;;;;;;9.10;4.50;;;;;;;;;;4991532;28;20022;-76
2021/08/12 06:40:19;;;;;;;12.10;4.43;;;;;;;;;;5008550;28;20018;-74
2021/08/12 06:42:47;;;;;;;5.13;3.58;;;23.60;99.90;;;;;;4991265;28;20052;-75
2021/08/12 06:45:15;;;;;;;7.05;4.57;;;20.40;99.90;;;;;;5008710;28;20022;-75
2021/08/12 06:47:40;;;;;;;5.65;4.18;;;20.30;99.90;;;;;;5009005;28;20445;-75
2021/08/12 06:50:07;;;;;;;7.43;4.10;;;19.90;99.90;;;;;;5008190;28;20026;-75
2021/08/12 06:52:34;;;;;;;7.80;4.40;;;20.70;99.90;;;;;;5007769;28;20379;-75
2021/08/12 06:55:00;;;;;;;6.70;4.43;;;;;;;;;;5008791;28;20029;-75
2021/08/12 06:57:26;;;;;;;7.97;4.45;;;;;;;;;;5008523;28;20072;-75
2021/08/12 06:59:52;;;;;;;8.27;4.25;;;;;;;;;;5007534;28;20439;-75
2021/08/12 07:02:18;;;;;;;5.15;3.95;;;;;;;;;;5008761;28;20494;-73
2021/08/12 07:04:44;;;;;;;5.75;3.80;;;;;;;;;;5007932;28;20022;-73
2021/08/12 07:07:10;;;;;;;8.88;4.20;;;;;;;;;;4991254;28;20061;-74
2021/08/12 07:09:37;;;;;;;8.60;4.35;;;;;;;;;;5007997;28;20564;-73
2021/08/12 07:12:03;;;;;;;5.93;3.85;;;;;;;;;;5008037;28;20030;-75
2021/08/12 07:14:29;;;;;;;7.90;3.78;;;;;;;;;;5008613;28;20105;-75
2021/08/12 07:16:55;;;;;;;5.57;4.00;;;;;;;;;;5008186;28;20030;-75
2021/08/12 07:19:21;;;;;;;7.88;4.20;;;;;;;;;;5007022;28;20089;-74
2021/08/12 07:21:47;;;;;;;8.23;3.65;;;;;;;;;;5008665;28;20030;-74
2021/08/12 07:24:13;;;;;;;8.88;3.67;;;;;;;;;;5007627;28;20022;-74
2021/08/12 07:26:41;;;;;;;5.78;4.15;;;;;;;;;;4990448;28;20121;-76
2021/08/12 07:29:07;;;;;;;6.53;3.63;;;;;;;;;;5008102;28;20036;-75
2021/08/12 07:31:33;;;;;;;5.47;3.95;;;;;;;;;;5007829;28;20026;-75
2021/08/12 07:33:59;;;;;;;8.90;3.95;;;;;;;;;;5006678;28;20037;-75
2021/08/12 07:36:26;;;;;;;5.70;3.55;;;;;;;;;;5007003;28;20026;-75
2021/08/12 07:38:51;;;;;;;5.82;3.75;;;;;;;;;;5006117;28;20069;-75
2021/08/12 07:41:18;;;;;;;7.75;4.10;;;;;;;;;;5007769;28;20505;-75
2021/08/12 07:43:45;;;;;;;6.90;4.03;;;;;;;;;;5007615;28;20099;-77
2021/08/12 07:46:11;;;;;;;7.50;4.00;;;;;;;;;;4989876;28;20029;-76
2021/08/12 07:48:37;;;;;;;9.80;4.25;;;;;;;;;;5008376;28;20041;-77
2021/08/12 07:51:03;;;;;;;5.07;3.97;;;;;;;;;;5006927;28;20037;-77
2021/08/12 07:53:29;;;;;;;11.10;4.22;;;;;;;;;;5008160;28;20490;-77
2021/08/12 07:55:56;;;;;;;7.60;3.85;;;;;;;;;;5007978;28;20084;-77
2021/08/12 07:58:22;;;;;;;5.15;3.65;;;;;;;;;;4990390;28;20037;-77
2021/08/12 08:00:48;;;;;;;7.72;4.35;;;;;;;;;;5007799;28;20028;-77
2021/08/12 08:03:14;;;;;;;7.03;5.15;;;;;;;;;;5007638;28;20018;-77
2021/08/12 08:05:40;;;;;;;8.30;3.85;;;;;;;;;;5010915;28;20409;-77
2021/08/12 08:08:06;;;;;;;6.32;3.83;;;;;;;;;;5012493;28;20067;-77
2021/08/12 08:10:33;;;;;;;5.22;3.88;;;;;;;;;;4993626;28;20025;-77
2021/08/12 08:12:59;;;;;;;9.95;4.15;;;;;;;;;;5011901;28;20026;-77
2021/08/12 08:15:25;;;;;;;11.70;4.85;;;;;;;;;;5012311;28;20034;-77
2021/08/12 08:17:51;;;;;;;6.55;4.47;;;;;;;;;;5011763;28;20064;-77
2021/08/12 08:20:18;;;;;;;6.45;3.65;;;;;;;;;;4994431;28;20034;-76
2021/08/12 08:22:44;;;;;;;7.82;3.90;;;;;;;;;;5012593;28;20221;-77
2021/08/12 08:25:10;;;;;;;8.27;4.30;;;;;;;;;;4993984;28;20108;-77
2021/08/12 08:27:36;;;;;;;5.65;3.92;;;21.00;99.90;;;;;;5012143;28;20058;-77
2021/08/12 08:30:03;;;;;;;8.52;4.05;;;24.20;99.90;;;;;;4993317;28;20068;-77
2021/08/12 08:32:28;;;;;;;8.48;4.22;;;24.00;99.90;;;;;;5012241;28;20030;-77
2021/08/12 08:34:54;;;;;;;4.90;3.85;;;24.30;99.90;;;;;;5011651;28;20034;-77
2021/08/12 08:37:20;;;;;;;8.20;4.05;;;24.50;99.90;;;;;;5014698;28;20032;-77
2021/08/12 08:39:46;;;;;;;6.63;4.03;;;24.60;99.90;;;;;;4996969;28;20433;-77
2021/08/12 08:42:12;;;;;;;12.55;3.58;;;24.60;99.90;;;;;;5015814;28;20037;-77
2021/08/12 08:44:40;;;;;;;6.28;4.30;;;;;;;;;;5015674;28;20021;-77
2021/08/12 08:47:07;;;;;;;9.35;4.10;;;;;;;;;;4997862;28;20030;-77
2021/08/12 08:49:35;;;;;;;5.95;3.95;;;;;;;;;;5014285;28;20030;-77
2021/08/12 08:52:01;;;;;;;6.50;3.85;;;;;;;;;;4997560;28;20498;-77
2021/08/12 08:54:27;;;;;;;7.80;4.78;;;;;;;;;;5015385;28;20420;-77
2021/08/12 08:56:54;;;;;;;5.65;4.25;;;;;;;;;;5015213;28;20089;-77
2021/08/12 08:59:21;;;;;;;8.00;4.30;;;;;;;;;;5014919;28;20037;-77
2021/08/12 09:01:47;;;;;;;6.32;4.32;;;;;;;;;;5014934;28;20022;-77
2021/08/12 09:04:13;;;;;;;6.70;4.35;;;;;;;;;;5014958;28;20487;-77
2021/08/12 09:06:39;;;;;;;8.05;4.38;;;;;;;;;;5015376;28;20032;-77
2021/08/12 09:09:05;;;;;;;8.85;3.75;;;;;;;;;;5014818;28;20394;-77
2021/08/12 09:11:31;;;;;;;19.67;4.40;;;;;;;;;;5014934;28;20037;-77
2021/08/12 09:13:57;;;;;;;9.45;4.35;;;;;;;;;;5015320;28;20033;-77
2021/08/12 09:16:34;;;;;;;11.73;4.20;;;;;;;;;;5014354;28;20095;-77
2021/08/12 09:19:20;;;;;;;8.88;4.65;;;;;;;;;;5014193;28;20037;-77
2021/08/12 09:21:47;;;;;;;9.57;4.10;;;;;;;;;;5014618;28;20105;-77
2021/08/12 09:24:13;;;;;;;5.93;4.32;;;;;;;;;;5014979;28;20386;-77
2021/08/12 09:26:39;;;;;;;9.00;5.10;;;;;;;;;;5014973;28;20026;-77
2021/08/12 09:29:06;;;;;;;8.23;4.53;;;;;;;;;;5015597;28;20088;-77
2021/08/12 09:31:32;;;;;;;15.13;4.20;;;;;;;;;;5018524;28;20034;-77
2021/08/12 09:33:58;;;;;;;11.60;4.78;;;;;;;;;;5013591;28;20445;-77
2021/08/12 09:36:26;;;;;;;7.10;4.18;;;;;;;;;;5014072;28;20060;-77
2021/08/12 09:39:08;;;;;;;8.43;3.67;;;;;;;;;;5015080;28;20034;-77
2021/08/12 09:41:54;;;;;;;6.60;3.80;;;;;;;;;;5019070;28;20026;-77
2021/08/12 09:44:29;;;;;;;12.25;3.92;;;;;;;;;;5014376;28;20038;-76
2021/08/12 09:46:56;;;;;;;8.38;4.13;;;;;;;;;;5013378;28;20072;-77
2021/08/12 09:49:23;;;;;;;6.78;4.18;;;;;;;;;;5014896;28;20061;-78
2021/08/12 09:51:49;;;;;;;9.80;4.25;;;;;;;;;;5017325;28;20026;-76
2021/08/12 09:54:15;;;;;;;7.15;4.43;;;;;;;;;;5017647;28;20022;-77
2021/08/12 09:56:41;;;;;;;5.65;3.70;;;;;;;;;;5009292;28;20021;-77
2021/08/12 09:59:08;;;;;;;4.80;3.55;;;;;;;;;;5011386;28;20605;-77
2021/08/12 10:01:33;;;;;;;6.35;4.15;;;32.10;93.10;;;;;;5013701;28;20557;-77
2021/08/12 10:04:15;;;;;;;6.93;3.83;;;32.20;92.10;;;;;;4995586;28;20125;-78
2021/08/12 10:06:41;;;;;;;;;;;33.00;90.70;;;;;;4996184;28;20029;-77
2021/08/12 10:09:17;;;;;;;5.63;3.72;;;;;;;;;;4995120;28;20480;-79
2021/08/12 10:11:43;;;;;;;6.47;4.07;;;;;;;;;;5013385;28;20540;-77
2021/08/12 10:14:09;;;;;;;9.50;4.45;;;;;;;;;;4995358;28;20018;-77
2021/08/12 10:16:36;;;;;;;5.93;3.42;;;;;;;;;;4979732;28;20058;-78
2021/08/12 10:19:04;;;;;;;6.15;4.18;;;;;;;;;;5012525;28;20072;-80
2021/08/12 10:21:30;;;;;;;9.85;4.40;;;;;;;;;;5012960;28;20029;-77
2021/08/12 10:24:00;;;;;;;4.68;3.42;;;;;;;;;;5011843;28;20449;-78
2021/08/12 10:26:30;;;;;;;7.35;3.85;;;;;;;;;;5009275;28;20044;-76
2021/08/12 10:29:15;;;;;;;6.38;3.60;;;33.30;84.40;;;;;;5007098;28;20501;-77
2021/08/12 10:31:44;;;;;;;7.80;3.92;;;36.60;70.00;;;;;;5008632;28;20026;-78
2021/08/12 10:34:11;;;;;;;6.00;3.90;;;35.80;70.90;;;;;;5008640;28;20018;-78
2021/08/12 10:36:37;;;;;;;7.00;3.85;;;35.60;71.40;;;;;;5009153;28;20406;-77
2021/08/12 10:39:05;;;;;;;6.15;3.88;;;35.30;70.80;;;;;;5008251;28;20025;-77
2021/08/12 10:41:32;;;;;;;5.18;3.72;;;;;;;;;;5008625;28;20026;-77
2021/08/12 10:43:59;;;;;;;7.18;4.10;;;35.50;70.80;;;;;;5009185;28;20390;-77
2021/08/12 10:46:35;;;;;;;5.78;3.72;;;35.60;69.50;;;;;;5008564;28;20034;-77
2021/08/12 10:49:34;;;;;;;6.00;3.80;;;36.00;69.80;;;;;;5009385;28;20676;-76
2021/08/12 10:52:10;;;;;;;7.75;3.83;;;35.90;69.10;;;;;;4960516;28;20045;-76
2021/08/12 10:54:38;;;;;;;7.07;3.97;;;36.50;69.10;;;;;;4992837;28;20073;-78
2021/08/12 10:57:12;;;;;;;11.02;4.15;;;36.70;66.70;;;;;;4992779;28;20019;-76
2021/08/12 10:59:39;;;;;;;7.05;4.00;;;36.50;66.60;;;;;;4992234;28;20092;-76
2021/08/12 11:02:32;;;;;;;4.97;3.47;;;35.70;67.40;;;;;;4992790;28;20041;-79
2021/08/12 11:05:04;;;;;;;7.80;4.15;;;35.90;67.20;;;;;;4992292;28;20109;-76
2021/08/12 11:07:39;;;;;;;6.95;4.45;;;35.60;67.90;;;;;;4992906;28;20025;-77
2021/08/12 11:10:07;;;;;;;8.45;4.35;;;35.30;68.60;;;;;;4992093;28;20423;-78
2021/08/12 11:12:57;;;;;;;6.32;4.03;;;34.80;68.80;;;;;;4974082;28;20034;-76
2021/08/12 11:15:40;;;;;;;7.70;3.67;;;34.40;70.00;;;;;;4995117;28;20041;-78
2021/08/12 11:18:11;;;;;;;6.45;4.32;;;34.30;70.30;;;;;;5012243;28;20029;-77
2021/08/12 11:20:41;;;;;;;5.32;3.88;;;34.20;69.80;;;;;;5011282;28;20049;-77
2021/08/12 11:23:39;;;;;;;6.47;3.95;;;34.40;69.90;;;;;;4994430;28;20081;-77
2021/08/12 11:26:07;;;;;;;8.90;4.20;;;34.30;69.40;;;;;;5007588;28;20514;-77
2021/08/12 11:28:55;;;;;;;4.28;3.75;;;33.90;69.80;;;;;;5011810;28;20390;-77
2021/08/12 11:31:20;;;;;;;12.18;5.13;;;34.00;69.30;;;;;;5011888;28;20026;-76
2021/08/12 11:34:13;;;;;;;7.50;4.30;;;34.10;71.50;;;;;;5011754;28;20029;-77
2021/08/12 11:37:13;;;;;;;7.55;4.40;;;34.60;69.60;;;;;;5011475;28;20026;-77
2021/08/12 11:40:01;;;;;;;6.72;4.13;;;34.30;69.30;;;;;;5010317;28;20050;-78
2021/08/12 11:42:44;;;;;;;6.07;4.53;;;34.30;68.80;;;;;;5011014;28;20037;-77
2021/08/12 11:45:18;;;;;;;7.07;4.25;;;34.00;69.90;;;;;;5010884;28;20026;-80
2021/08/12 11:47:52;;;;;;;6.97;3.90;;;34.10;69.30;;;;;;5011495;28;20037;-78
2021/08/12 11:50:18;;;;;;;6.68;4.03;;;33.70;69.10;;;;;;5010419;28;20022;-78
2021/08/12 11:52:48;;;;;;;7.18;3.90;;;33.70;70.00;;;;;;5011644;28;20065;-77
2021/08/12 11:55:20;;;;;;;8.18;4.65;;;34.00;69.80;;;;;;5011662;28;20037;-77
2021/08/12 11:57:53;;;;;;;4.90;3.88;;;34.70;70.30;;;;;;5011638;28;20030;-77
2021/08/12 12:00:33;;;;;;;7.00;4.40;;;34.90;68.10;;;;;;5011084;28;20034;-77
2021/08/12 12:03:04;;;;;;;13.15;4.32;;;35.20;67.90;;;;;;4993735;28;20026;-77
2021/08/12 12:05:31;;;;;;;6.88;4.43;;;34.90;68.30;;;;;;5011081;28;20534;-76
2021/08/12 12:08:05;;;;;;;6.80;4.03;;;34.70;69.50;;;;;;5011483;28;20045;-76
2021/08/12 12:10:36;;;;;;;6.38;4.53;;;34.50;68.30;;;;;;5025933;28;20038;-78
2021/08/12 12:13:10;;;;;;;6.47;4.10;;;34.70;69.40;;;;;;5012227;28;20514;-77
2021/08/12 12:15:41;;;;;;;9.02;4.45;;;35.10;67.80;;;;;;5012124;28;20018;-77
2021/08/12 12:18:07;;;;;;;7.93;4.32;;;34.90;67.90;;;;;;5012539;28;20034;-80
2021/08/12 12:20:39;;;;;;;7.68;4.10;;;35.20;66.20;;;;;;5011552;28;20497;-79
2021/08/12 12:23:07;;;;;;;7.40;4.40;;;35.10;67.40;;;;;;5026570;28;20034;-78
2021/08/12 12:25:36;;;;;;;8.15;4.28;;;33.60;66.60;;;;;;5027265;28;20026;-79
2021/08/12 12:28:02;;;;;;;6.40;4.20;;;35.10;68.00;;;;;;5027363;28;20482;-78
2021/08/12 12:30:30;;;;;;;8.25;4.03;;;35.50;64.90;;;;;;5011500;28;20057;-78
2021/08/12 12:33:07;;;;;;;6.85;4.13;;;35.20;66.30;;;;;;5027254;28;20030;-78
2021/08/12 12:35:44;;;;;;;6.68;4.45;;;35.70;66.90;;;;;;5027013;28;20049;-78
2021/08/12 12:38:20;;;;;;;11.18;4.90;;;36.10;65.00;;;;;;5011832;28;20041;-78
2021/08/12 12:40:47;;;;;;;9.82;4.57;;;36.30;64.40;;;;;;4991304;28;20018;-80
2021/08/12 12:43:14;;;;;;;6.47;4.07;;;36.50;64.30;;;;;;5012712;28;20029;-79
2021/08/12 12:45:49;;;;;;;6.63;4.63;;;36.90;64.00;;;;;;5012334;28;20036;-79
2021/08/12 12:48:16;;;;;;;5.95;4.65;;;37.30;63.70;;;;;;5011604;28;20026;-78
2021/08/12 12:50:44;;;;;;;5.53;3.90;;;37.90;62.30;;;;;;4977559;28;20022;-80
2021/08/12 12:53:11;;;;;;;5.70;4.43;;;38.40;62.10;;;;;;5015193;28;20050;-79
2021/08/12 12:55:42;;;;;;;6.72;4.10;;;38.30;61.60;;;;;;5015609;28;20018;-78
2021/08/12 12:58:22;;;;;;;5.90;4.40;;;38.60;60.90;;;;;;5015252;28;20026;-80
2021/08/12 13:01:01;;;;;;;8.65;4.20;;;38.90;59.60;;;;;;4997803;28;20018;-78
2021/08/12 13:03:33;;;;;;;7.40;4.07;;;39.60;59.10;;;;;;5016193;28;20545;-80
2021/08/12 13:06:02;;;;;;;4.93;4.28;;;40.60;57.90;;;;;;5016560;28;20025;-78
2021/08/12 13:08:39;;;;;;;6.93;4.47;;;41.00;56.60;;;;;;5015031;28;20022;-78
2021/08/12 13:11:06;;;;;;;5.07;4.43;;;40.90;55.50;;;;;;4997085;28;20032;-77
2021/08/12 13:13:32;;;;;;;6.53;4.15;;;40.10;57.60;;;;;;5014688;28;20026;-78
2021/08/12 13:15:57;;;;;;;7.18;4.13;;;39.90;56.20;;;;;;5015247;28;20052;-77
2021/08/12 13:18:23;;;;;;;6.32;4.07;;;39.90;55.90;;;;;;5015818;28;20100;-77
2021/08/12 13:20:48;;;;;;;8.20;4.35;;;39.50;56.80;;;;;;5014770;28;20026;-81
2021/08/12 13:23:15;;;;;;;7.45;4.38;;;38.80;55.40;;;;;;5016125;28;20060;-78
2021/08/12 13:25:41;;;;;;;7.55;4.68;;;38.90;56.30;;;;;;5014560;28;20114;-78
2021/08/12 13:28:07;;;;;;;8.13;4.43;;;39.20;56.50;;;;;;5014851;28;20033;-78
2021/08/12 13:30:37;;;;;;;5.75;4.20;;;39.90;55.40;;;;;;5014396;28;20553;-78
2021/08/12 13:33:23;;;;;;;6.97;4.40;;;40.40;54.60;;;;;;5014601;28;20152;-78
2021/08/12 13:35:50;;;;;;;5.15;4.45;;;40.40;54.00;;;;;;5030532;28;20036;-80
2021/08/12 13:38:16;;;;;;;6.85;4.43;;;40.60;53.90;;;;;;5015642;28;20026;-78
2021/08/12 13:40:43;;;;;;;8.52;4.47;;;40.90;53.60;;;;;;5014690;28;20084;-78
2021/08/12 13:43:09;;;;;;;7.50;3.80;;;40.50;54.00;;;;;;5013781;28;20026;-78
2021/08/12 13:45:36;;;;;;;5.15;4.32;;;39.70;55.20;;;;;;5013601;28;20025;-79
2021/08/12 13:48:01;;;;;;;6.03;4.65;;;39.80;53.60;;;;;;4969153;28;20462;-80
2021/08/12 13:50:27;;;;;;;6.07;4.38;;;40.50;52.90;;;;;;5004430;28;20034;-78
2021/08/12 13:52:53;;;;;;;8.10;4.50;;;40.70;53.50;;;;;;5003168;28;20018;-78
2021/08/12 13:55:19;;;;;;;5.80;4.18;;;40.40;53.50;;;;;;4994201;28;20037;-79
2021/08/12 13:57:44;;;;;;;6.95;4.55;;;40.70;52.40;;;;;;4994240;28;20077;-78
2021/08/12 14:00:10;;;;;;;7.85;5.10;;;40.30;52.60;;;;;;5010396;28;20553;-81
2021/08/12 14:02:36;;;;;;;12.43;5.10;;;40.70;52.20;;;;;;5013601;28;20113;-80
2021/08/12 14:05:02;;;;;;;7.60;4.78;;;41.20;51.50;;;;;;4995906;28;20406;-78
2021/08/12 14:07:27;;;;;;;7.70;4.60;;;41.70;50.40;;;;;;4996200;28;20451;-78
2021/08/12 14:09:53;;;;;;;6.93;4.45;;;42.00;50.30;;;;;;5012929;28;20030;-79